sensor_id;sensor_type;location;lat;lon;timestamp;P1;durP1;ratioP1;P2;durP2;ratioP2
37873;SDS011;23709;48.078;11.684;2023-04-24T00:00:46;2.70;;;1.83;;
37873;SDS011;23709;48.078;11.684;2023-04-24T00:03:18;2.90;;;1.65;;
37873;SDS011;23709;48.078;11.684;2023-04-24T00:05:53;5.85;;;2.05;;
37873;SDS011;23709;48.078;11.684;2023-04-24T00:08:25;3.70;;;1.40;;
37873;SDS011;23709;48.078;11.684;2023-04-24T00:10:58;2.95;;;1.63;;
37873;SDS011;23709;48.078;11.684;2023-04-24T00:13:30;3.38;;;1.90;;
37873;SDS011;23709;48.078;11.684;2023-04-24T00:16:02;5.25;;;2.00;;
37873;SDS011;23709;48.078;11.684;2023-04-24T00:18:35;3.87;;;1.90;;
37873;SDS011;23709;48.078;11.684;2023-04-24T00:21:07;3.90;;;1.80;;
37873;SDS011;23709;48.078;11.684;2023-04-24T00:23:39;3.38;;;1.75;;
37873;SDS011;23709;48.078;11.684;2023-04-24T00:26:11;3.15;;;1.80;;
37873;SDS011;23709;48.078;11.684;2023-04-24T00:28:43;5.82;;;1.90;;
37873;SDS011;23709;48.078;11.684;2023-04-24T00:31:16;2.72;;;1.80;;
37873;SDS011;23709;48.078;11.684;2023-04-24T00:33:48;3.60;;;1.60;;
37873;SDS011;23709;48.078;11.684;2023-04-24T00:36:21;4.37;;;1.67;;
37873;SDS011;23709;48.078;11.684;2023-04-24T00:38:54;1.92;;;1.63;;
37873;SDS011;23709;48.078;11.684;2023-04-24T00:41:27;2.45;;;1.67;;
37873;SDS011;23709;48.078;11.684;2023-04-24T00:44:00;2.05;;;1.65;;
37873;SDS011;23709;48.078;11.684;2023-04-24T00:46:32;3.95;;;1.60;;
37873;SDS011;23709;48.078;11.684;2023-04-24T00:49:05;2.55;;;1.48;;
37873;SDS011;23709;48.078;11.684;2023-04-24T00:51:37;2.17;;;1.50;;
37873;SDS011;23709;48.078;11.684;2023-04-24T00:54:10;2.38;;;1.20;;
37873;SDS011;23709;48.078;11.684;2023-04-24T00:56:43;1.95;;;1.42;;
37873;SDS011;23709;48.078;11.684;2023-04-24T00:59:16;3.38;;;1.30;;
37873;SDS011;23709;48.078;11.684;2023-04-24T01:04:22;3.55;;;1.02;;
37873;SDS011;23709;48.078;11.684;2023-04-24T01:06:54;1.48;;;1.10;;
37873;SDS011;23709;48.078;11.684;2023-04-24T01:09:27;1.80;;;0.90;;
37873;SDS011;23709;48.078;11.684;2023-04-24T01:12:01;1.55;;;1.35;;
37873;SDS011;23709;48.078;11.684;2023-04-24T01:14:34;1.40;;;1.00;;
37873;SDS011;23709;48.078;11.684;2023-04-24T01:17:06;3.20;;;1.00;;
37873;SDS011;23709;48.078;11.684;2023-04-24T01:19:38;1.05;;;0.73;;
37873;SDS011;23709;48.078;11.684;2023-04-24T01:22:15;1.65;;;0.85;;
37873;SDS011;23709;48.078;11.684;2023-04-24T01:24:51;3.00;;;1.05;;
37873;SDS011;23709;48.078;11.684;2023-04-24T01:29:56;2.85;;;0.82;;
37873;SDS011;23709;48.078;11.684;2023-04-24T01:32:38;1.67;;;0.90;;
37873;SDS011;23709;48.078;11.684;2023-04-24T01:35:11;0.82;;;0.65;;
37873;SDS011;23709;48.078;11.684;2023-04-24T01:37:44;0.57;;;0.50;;
37873;SDS011;23709;48.078;11.684;2023-04-24T01:40:16;1.20;;;0.60;;
37873;SDS011;23709;48.078;11.684;2023-04-24T01:42:49;3.42;;;0.70;;
37873;SDS011;23709;48.078;11.684;2023-04-24T01:45:22;1.33;;;0.90;;
37873;SDS011;23709;48.078;11.684;2023-04-24T01:47:54;2.40;;;0.60;;
37873;SDS011;23709;48.078;11.684;2023-04-24T01:50:28;1.08;;;0.85;;
37873;SDS011;23709;48.078;11.684;2023-04-24T01:53:00;1.65;;;1.02;;
37873;SDS011;23709;48.078;11.684;2023-04-24T01:55:32;3.33;;;0.75;;
37873;SDS011;23709;48.078;11.684;2023-04-24T01:58:05;1.02;;;0.63;;
37873;SDS011;23709;48.078;11.684;2023-04-24T02:00:37;1.23;;;0.55;;
37873;SDS011;23709;48.078;11.684;2023-04-24T02:03:09;2.30;;;0.65;;
37873;SDS011;23709;48.078;11.684;2023-04-24T02:05:45;0.65;;;0.60;;
37873;SDS011;23709;48.078;11.684;2023-04-24T02:08:17;0.60;;;0.50;;
37873;SDS011;23709;48.078;11.684;2023-04-24T02:10:49;1.27;;;0.80;;
37873;SDS011;23709;48.078;11.684;2023-04-24T02:13:21;1.42;;;0.70;;
37873;SDS011;23709;48.078;11.684;2023-04-24T02:15:54;1.70;;;0.60;;
37873;SDS011;23709;48.078;11.684;2023-04-24T02:18:27;0.77;;;0.55;;
37873;SDS011;23709;48.078;11.684;2023-04-24T02:23:33;1.35;;;0.68;;
37873;SDS011;23709;48.078;11.684;2023-04-24T02:26:05;0.82;;;0.50;;
37873;SDS011;23709;48.078;11.684;2023-04-24T02:28:37;0.73;;;0.57;;
37873;SDS011;23709;48.078;11.684;2023-04-24T02:31:10;2.60;;;0.70;;
37873;SDS011;23709;48.078;11.684;2023-04-24T02:33:42;0.82;;;0.52;;
37873;SDS011;23709;48.078;11.684;2023-04-24T02:36:14;2.13;;;0.80;;
37873;SDS011;23709;48.078;11.684;2023-04-24T02:38:46;2.15;;;0.90;;
37873;SDS011;23709;48.078;11.684;2023-04-24T02:41:18;3.58;;;1.05;;
37873;SDS011;23709;48.078;11.684;2023-04-24T02:43:52;3.35;;;1.05;;
37873;SDS011;23709;48.078;11.684;2023-04-24T02:46:24;2.92;;;1.95;;
37873;SDS011;23709;48.078;11.684;2023-04-24T02:48:57;1.20;;;0.60;;
37873;SDS011;23709;48.078;11.684;2023-04-24T02:51:29;0.75;;;0.60;;
37873;SDS011;23709;48.078;11.684;2023-04-24T02:54:02;1.50;;;0.68;;
37873;SDS011;23709;48.078;11.684;2023-04-24T02:56:35;2.35;;;0.73;;
37873;SDS011;23709;48.078;11.684;2023-04-24T02:59:09;0.95;;;0.75;;
37873;SDS011;23709;48.078;11.684;2023-04-24T03:01:42;1.80;;;0.60;;
37873;SDS011;23709;48.078;11.684;2023-04-24T03:04:14;1.60;;;0.55;;
37873;SDS011;23709;48.078;11.684;2023-04-24T03:06:47;2.70;;;0.55;;
37873;SDS011;23709;48.078;11.684;2023-04-24T03:09:20;1.15;;;0.82;;
37873;SDS011;23709;48.078;11.684;2023-04-24T03:11:53;1.02;;;0.80;;
37873;SDS011;23709;48.078;11.684;2023-04-24T03:14:25;1.43;;;0.90;;
37873;SDS011;23709;48.078;11.684;2023-04-24T03:16:58;1.85;;;0.82;;
37873;SDS011;23709;48.078;11.684;2023-04-24T03:19:30;1.85;;;0.93;;
37873;SDS011;23709;48.078;11.684;2023-04-24T03:22:08;0.57;;;0.50;;
37873;SDS011;23709;48.078;11.684;2023-04-24T03:24:42;0.95;;;0.80;;
37873;SDS011;23709;48.078;11.684;2023-04-24T03:27:14;1.40;;;0.90;;
37873;SDS011;23709;48.078;11.684;2023-04-24T03:29:59;1.13;;;0.85;;
37873;SDS011;23709;48.078;11.684;2023-04-24T03:32:47;1.15;;;0.60;;
37873;SDS011;23709;48.078;11.684;2023-04-24T03:35:24;1.67;;;0.90;;
37873;SDS011;23709;48.078;11.684;2023-04-24T03:37:57;3.27;;;1.07;;
37873;SDS011;23709;48.078;11.684;2023-04-24T03:40:59;1.13;;;0.73;;
37873;SDS011;23709;48.078;11.684;2023-04-24T03:46:15;0.75;;;0.75;;
37873;SDS011;23709;48.078;11.684;2023-04-24T03:48:54;1.63;;;0.90;;
37873;SDS011;23709;48.078;11.684;2023-04-24T03:51:31;0.90;;;0.80;;
37873;SDS011;23709;48.078;11.684;2023-04-24T03:54:15;3.83;;;1.00;;
37873;SDS011;23709;48.078;11.684;2023-04-24T03:56:48;1.27;;;0.80;;
37873;SDS011;23709;48.078;11.684;2023-04-24T03:59:20;1.40;;;1.02;;
37873;SDS011;23709;48.078;11.684;2023-04-24T04:02:05;1.25;;;1.00;;
37873;SDS011;23709;48.078;11.684;2023-04-24T04:04:37;1.55;;;0.98;;
37873;SDS011;23709;48.078;11.684;2023-04-24T04:07:10;1.35;;;0.95;;
37873;SDS011;23709;48.078;11.684;2023-04-24T04:09:42;3.50;;;1.40;;
37873;SDS011;23709;48.078;11.684;2023-04-24T04:12:16;1.70;;;1.07;;
37873;SDS011;23709;48.078;11.684;2023-04-24T04:14:48;2.67;;;1.00;;
37873;SDS011;23709;48.078;11.684;2023-04-24T04:17:20;2.67;;;1.05;;
37873;SDS011;23709;48.078;11.684;2023-04-24T04:19:52;1.55;;;1.00;;
37873;SDS011;23709;48.078;11.684;2023-04-24T04:22:25;3.05;;;1.25;;
37873;SDS011;23709;48.078;11.684;2023-04-24T04:24:58;1.77;;;0.88;;
37873;SDS011;23709;48.078;11.684;2023-04-24T04:27:32;2.15;;;1.15;;
37873;SDS011;23709;48.078;11.684;2023-04-24T04:30:08;1.52;;;1.20;;
37873;SDS011;23709;48.078;11.684;2023-04-24T04:32:59;2.28;;;1.15;;
37873;SDS011;23709;48.078;11.684;2023-04-24T04:38:05;1.17;;;1.02;;
37873;SDS011;23709;48.078;11.684;2023-04-24T04:40:50;1.95;;;1.35;;
37873;SDS011;23709;48.078;11.684;2023-04-24T04:43:24;2.35;;;1.08;;
37873;SDS011;23709;48.078;11.684;2023-04-24T04:48:42;1.48;;;1.10;;
37873;SDS011;23709;48.078;11.684;2023-04-24T04:51:15;2.40;;;0.70;;
37873;SDS011;23709;48.078;11.684;2023-04-24T04:53:47;1.87;;;0.73;;
37873;SDS011;23709;48.078;11.684;2023-04-24T04:56:20;2.22;;;0.82;;
37873;SDS011;23709;48.078;11.684;2023-04-24T04:58:53;1.20;;;0.80;;
37873;SDS011;23709;48.078;11.684;2023-04-24T05:01:26;1.10;;;0.95;;
37873;SDS011;23709;48.078;11.684;2023-04-24T05:04:00;2.47;;;0.70;;
37873;SDS011;23709;48.078;11.684;2023-04-24T05:06:32;3.35;;;1.02;;
37873;SDS011;23709;48.078;11.684;2023-04-24T05:09:05;1.55;;;1.00;;
37873;SDS011;23709;48.078;11.684;2023-04-24T05:11:47;2.45;;;0.90;;
37873;SDS011;23709;48.078;11.684;2023-04-24T05:14:19;1.42;;;0.93;;
37873;SDS011;23709;48.078;11.684;2023-04-24T05:16:51;2.50;;;1.20;;
37873;SDS011;23709;48.078;11.684;2023-04-24T05:19:25;1.23;;;0.73;;
37873;SDS011;23709;48.078;11.684;2023-04-24T05:21:58;1.20;;;0.80;;
37873;SDS011;23709;48.078;11.684;2023-04-24T05:24:30;2.25;;;1.08;;
37873;SDS011;23709;48.078;11.684;2023-04-24T05:27:03;1.73;;;0.85;;
37873;SDS011;23709;48.078;11.684;2023-04-24T05:29:43;2.75;;;1.20;;
37873;SDS011;23709;48.078;11.684;2023-04-24T05:32:17;1.85;;;0.90;;
37873;SDS011;23709;48.078;11.684;2023-04-24T05:34:49;1.00;;;0.90;;
37873;SDS011;23709;48.078;11.684;2023-04-24T05:37:22;2.17;;;0.75;;
37873;SDS011;23709;48.078;11.684;2023-04-24T05:39:54;2.15;;;1.00;;
37873;SDS011;23709;48.078;11.684;2023-04-24T05:42:27;1.38;;;1.08;;
37873;SDS011;23709;48.078;11.684;2023-04-24T05:45:01;1.65;;;0.77;;
37873;SDS011;23709;48.078;11.684;2023-04-24T05:47:33;2.25;;;0.70;;
37873;SDS011;23709;48.078;11.684;2023-04-24T05:50:07;1.45;;;0.57;;
37873;SDS011;23709;48.078;11.684;2023-04-24T05:52:39;4.00;;;0.75;;
37873;SDS011;23709;48.078;11.684;2023-04-24T05:55:26;1.23;;;0.70;;
37873;SDS011;23709;48.078;11.684;2023-04-24T05:57:58;0.80;;;0.80;;
37873;SDS011;23709;48.078;11.684;2023-04-24T06:00:31;2.25;;;1.55;;
37873;SDS011;23709;48.078;11.684;2023-04-24T06:03:09;1.50;;;1.00;;
37873;SDS011;23709;48.078;11.684;2023-04-24T06:05:41;1.55;;;0.90;;
37873;SDS011;23709;48.078;11.684;2023-04-24T06:08:15;1.30;;;0.90;;
37873;SDS011;23709;48.078;11.684;2023-04-24T06:13:24;3.03;;;0.93;;
37873;SDS011;23709;48.078;11.684;2023-04-24T06:16:15;0.80;;;0.60;;
37873;SDS011;23709;48.078;11.684;2023-04-24T06:18:54;1.25;;;0.88;;
37873;SDS011;23709;48.078;11.684;2023-04-24T06:21:27;1.47;;;0.70;;
37873;SDS011;23709;48.078;11.684;2023-04-24T06:23:59;4.80;;;0.77;;
37873;SDS011;23709;48.078;11.684;2023-04-24T06:26:32;0.60;;;0.57;;
37873;SDS011;23709;48.078;11.684;2023-04-24T06:29:04;1.20;;;0.50;;
37873;SDS011;23709;48.078;11.684;2023-04-24T06:31:40;1.33;;;0.80;;
37873;SDS011;23709;48.078;11.684;2023-04-24T06:34:12;0.70;;;0.52;;
37873;SDS011;23709;48.078;11.684;2023-04-24T06:36:44;2.80;;;0.65;;
37873;SDS011;23709;48.078;11.684;2023-04-24T06:39:17;2.80;;;0.57;;
37873;SDS011;23709;48.078;11.684;2023-04-24T06:41:50;0.73;;;0.52;;
37873;SDS011;23709;48.078;11.684;2023-04-24T06:44:25;2.70;;;0.77;;
37873;SDS011;23709;48.078;11.684;2023-04-24T06:46:57;1.48;;;0.63;;
37873;SDS011;23709;48.078;11.684;2023-04-24T06:49:29;2.15;;;0.55;;
37873;SDS011;23709;48.078;11.684;2023-04-24T06:52:01;0.57;;;0.45;;
37873;SDS011;23709;48.078;11.684;2023-04-24T06:54:34;0.90;;;0.60;;
37873;SDS011;23709;48.078;11.684;2023-04-24T06:57:06;0.57;;;0.57;;
37873;SDS011;23709;48.078;11.684;2023-04-24T06:59:40;1.67;;;0.70;;
37873;SDS011;23709;48.078;11.684;2023-04-24T07:02:13;1.88;;;0.68;;
37873;SDS011;23709;48.078;11.684;2023-04-24T07:04:46;0.40;;;0.40;;
37873;SDS011;23709;48.078;11.684;2023-04-24T07:07:19;0.68;;;0.40;;
37873;SDS011;23709;48.078;11.684;2023-04-24T07:09:52;0.57;;;0.45;;
37873;SDS011;23709;48.078;11.684;2023-04-24T07:12:25;0.43;;;0.40;;
37873;SDS011;23709;48.078;11.684;2023-04-24T07:14:58;0.40;;;0.30;;
37873;SDS011;23709;48.078;11.684;2023-04-24T07:17:30;0.40;;;0.40;;
37873;SDS011;23709;48.078;11.684;2023-04-24T07:20:02;0.50;;;0.50;;
37873;SDS011;23709;48.078;11.684;2023-04-24T07:22:35;0.82;;;0.40;;
37873;SDS011;23709;48.078;11.684;2023-04-24T07:25:09;2.17;;;0.45;;
37873;SDS011;23709;48.078;11.684;2023-04-24T07:27:42;1.70;;;0.50;;
37873;SDS011;23709;48.078;11.684;2023-04-24T07:30:14;0.50;;;0.45;;
37873;SDS011;23709;48.078;11.684;2023-04-24T07:32:46;0.35;;;0.30;;
37873;SDS011;23709;48.078;11.684;2023-04-24T07:35:19;0.63;;;0.32;;
37873;SDS011;23709;48.078;11.684;2023-04-24T07:37:52;3.53;;;0.50;;
37873;SDS011;23709;48.078;11.684;2023-04-24T07:40:25;0.60;;;0.33;;
37873;SDS011;23709;48.078;11.684;2023-04-24T07:42:58;0.40;;;0.38;;
37873;SDS011;23709;48.078;11.684;2023-04-24T07:45:30;0.77;;;0.68;;
37873;SDS011;23709;48.078;11.684;2023-04-24T07:48:05;0.50;;;0.40;;
37873;SDS011;23709;48.078;11.684;2023-04-24T07:50:38;2.28;;;0.60;;
37873;SDS011;23709;48.078;11.684;2023-04-24T07:53:10;1.92;;;0.63;;
37873;SDS011;23709;48.078;11.684;2023-04-24T07:55:42;1.58;;;0.40;;
37873;SDS011;23709;48.078;11.684;2023-04-24T07:58:15;0.43;;;0.30;;
37873;SDS011;23709;48.078;11.684;2023-04-24T08:00:47;0.47;;;0.40;;
37873;SDS011;23709;48.078;11.684;2023-04-24T08:03:19;0.77;;;0.43;;
37873;SDS011;23709;48.078;11.684;2023-04-24T08:05:52;0.70;;;0.52;;
37873;SDS011;23709;48.078;11.684;2023-04-24T08:08:25;0.60;;;0.60;;
37873;SDS011;23709;48.078;11.684;2023-04-24T08:10:57;2.90;;;0.60;;
37873;SDS011;23709;48.078;11.684;2023-04-24T08:13:30;1.13;;;0.43;;
37873;SDS011;23709;48.078;11.684;2023-04-24T08:16:02;0.75;;;0.30;;
37873;SDS011;23709;48.078;11.684;2023-04-24T08:18:34;0.93;;;0.40;;
37873;SDS011;23709;48.078;11.684;2023-04-24T08:21:07;2.23;;;0.60;;
37873;SDS011;23709;48.078;11.684;2023-04-24T08:23:39;2.10;;;0.60;;
37873;SDS011;23709;48.078;11.684;2023-04-24T08:26:12;4.95;;;1.20;;
37873;SDS011;23709;48.078;11.684;2023-04-24T08:28:45;0.73;;;0.30;;
37873;SDS011;23709;48.078;11.684;2023-04-24T08:31:17;0.95;;;0.50;;
37873;SDS011;23709;48.078;11.684;2023-04-24T08:33:50;2.85;;;0.52;;
37873;SDS011;23709;48.078;11.684;2023-04-24T08:36:22;1.30;;;0.63;;
37873;SDS011;23709;48.078;11.684;2023-04-24T08:39:09;0.60;;;0.40;;
37873;SDS011;23709;48.078;11.684;2023-04-24T08:41:42;0.40;;;0.40;;
37873;SDS011;23709;48.078;11.684;2023-04-24T08:44:14;2.53;;;0.40;;
37873;SDS011;23709;48.078;11.684;2023-04-24T08:46:48;0.90;;;0.40;;
37873;SDS011;23709;48.078;11.684;2023-04-24T08:49:20;1.10;;;0.73;;
37873;SDS011;23709;48.078;11.684;2023-04-24T08:51:55;0.65;;;0.50;;
37873;SDS011;23709;48.078;11.684;2023-04-24T08:54:28;2.17;;;1.10;;
37873;SDS011;23709;48.078;11.684;2023-04-24T08:57:01;1.08;;;0.95;;
37873;SDS011;23709;48.078;11.684;2023-04-24T08:59:35;2.33;;;1.20;;
37873;SDS011;23709;48.078;11.684;2023-04-24T09:02:10;1.23;;;0.88;;
37873;SDS011;23709;48.078;11.684;2023-04-24T09:04:43;3.33;;;1.05;;
37873;SDS011;23709;48.078;11.684;2023-04-24T09:07:17;2.70;;;1.48;;
37873;SDS011;23709;48.078;11.684;2023-04-24T09:09:51;2.53;;;1.35;;
37873;SDS011;23709;48.078;11.684;2023-04-24T09:12:24;2.78;;;1.30;;
37873;SDS011;23709;48.078;11.684;2023-04-24T09:14:56;3.45;;;1.10;;
37873;SDS011;23709;48.078;11.684;2023-04-24T09:20:02;1.30;;;1.20;;
37873;SDS011;23709;48.078;11.684;2023-04-24T09:22:36;2.65;;;1.40;;
37873;SDS011;23709;48.078;11.684;2023-04-24T09:25:09;1.75;;;1.23;;
37873;SDS011;23709;48.078;11.684;2023-04-24T09:27:44;1.83;;;1.25;;
37873;SDS011;23709;48.078;11.684;2023-04-24T09:30:20;1.92;;;0.95;;
37873;SDS011;23709;48.078;11.684;2023-04-24T09:33:10;2.67;;;1.40;;
37873;SDS011;23709;48.078;11.684;2023-04-24T09:35:51;5.13;;;1.70;;
37873;SDS011;23709;48.078;11.684;2023-04-24T09:38:31;1.80;;;1.42;;
37873;SDS011;23709;48.078;11.684;2023-04-24T09:41:08;1.40;;;1.20;;
37873;SDS011;23709;48.078;11.684;2023-04-24T09:43:45;3.42;;;1.20;;
37873;SDS011;23709;48.078;11.684;2023-04-24T09:46:18;2.90;;;1.70;;
37873;SDS011;23709;48.078;11.684;2023-04-24T09:48:50;5.47;;;2.00;;
37873;SDS011;23709;48.078;11.684;2023-04-24T09:51:33;3.17;;;1.58;;
37873;SDS011;23709;48.078;11.684;2023-04-24T09:54:17;2.47;;;1.45;;
37873;SDS011;23709;48.078;11.684;2023-04-24T09:56:53;2.05;;;1.27;;
37873;SDS011;23709;48.078;11.684;2023-04-24T09:59:27;3.42;;;1.35;;
37873;SDS011;23709;48.078;11.684;2023-04-24T10:04:32;2.90;;;1.55;;
37873;SDS011;23709;48.078;11.684;2023-04-24T10:07:05;5.85;;;1.67;;
37873;SDS011;23709;48.078;11.684;2023-04-24T10:09:38;2.35;;;1.70;;
37873;SDS011;23709;48.078;11.684;2023-04-24T10:12:10;3.47;;;1.40;;
37873;SDS011;23709;48.078;11.684;2023-04-24T10:14:45;5.20;;;1.55;;
37873;SDS011;23709;48.078;11.684;2023-04-24T10:17:19;3.05;;;1.48;;
37873;SDS011;23709;48.078;11.684;2023-04-24T10:22:25;3.55;;;1.50;;
37873;SDS011;23709;48.078;11.684;2023-04-24T10:24:58;2.80;;;1.85;;
37873;SDS011;23709;48.078;11.684;2023-04-24T10:27:31;4.20;;;1.55;;
37873;SDS011;23709;48.078;11.684;2023-04-24T10:30:04;1.52;;;1.40;;
37873;SDS011;23709;48.078;11.684;2023-04-24T10:32:39;2.65;;;1.50;;
37873;SDS011;23709;48.078;11.684;2023-04-24T10:35:13;4.77;;;2.23;;
37873;SDS011;23709;48.078;11.684;2023-04-24T10:37:48;3.67;;;1.83;;
37873;SDS011;23709;48.078;11.684;2023-04-24T10:43:08;5.50;;;2.95;;
37873;SDS011;23709;48.078;11.684;2023-04-24T10:45:42;2.45;;;1.60;;
37873;SDS011;23709;48.078;11.684;2023-04-24T10:48:36;3.25;;;1.58;;
37873;SDS011;23709;48.078;11.684;2023-04-24T10:51:14;2.45;;;1.60;;
37873;SDS011;23709;48.078;11.684;2023-04-24T10:53:46;1.67;;;1.38;;
37873;SDS011;23709;48.078;11.684;2023-04-24T10:56:21;3.13;;;1.83;;
37873;SDS011;23709;48.078;11.684;2023-04-24T10:58:54;4.93;;;2.05;;
37873;SDS011;23709;48.078;11.684;2023-04-24T11:01:27;5.32;;;2.08;;
37873;SDS011;23709;48.078;11.684;2023-04-24T11:04:02;0.95;;;0.85;;
37873;SDS011;23709;48.078;11.684;2023-04-24T11:06:36;3.58;;;1.10;;
37873;SDS011;23709;48.078;11.684;2023-04-24T11:09:09;2.23;;;1.30;;
37873;SDS011;23709;48.078;11.684;2023-04-24T11:11:44;2.38;;;1.30;;
37873;SDS011;23709;48.078;11.684;2023-04-24T11:16:53;1.50;;;0.98;;
37873;SDS011;23709;48.078;11.684;2023-04-24T11:19:27;3.40;;;1.23;;
37873;SDS011;23709;48.078;11.684;2023-04-24T11:22:02;0.95;;;0.70;;
37873;SDS011;23709;48.078;11.684;2023-04-24T11:27:20;1.20;;;0.90;;
37873;SDS011;23709;48.078;11.684;2023-04-24T11:37:48;1.58;;;1.00;;
37873;SDS011;23709;48.078;11.684;2023-04-24T11:40:43;3.38;;;1.15;;
37873;SDS011;23709;48.078;11.684;2023-04-24T11:43:16;1.92;;;1.50;;
37873;SDS011;23709;48.078;11.684;2023-04-24T11:45:51;2.75;;;1.30;;
37873;SDS011;23709;48.078;11.684;2023-04-24T11:48:24;3.35;;;1.58;;
37873;SDS011;23709;48.078;11.684;2023-04-24T11:50:56;3.47;;;1.42;;
37873;SDS011;23709;48.078;11.684;2023-04-24T11:53:28;1.98;;;1.27;;
37873;SDS011;23709;48.078;11.684;2023-04-24T11:56:03;2.25;;;1.08;;
37873;SDS011;23709;48.078;11.684;2023-04-24T11:58:37;3.42;;;1.40;;
37873;SDS011;23709;48.078;11.684;2023-04-24T12:01:10;2.00;;;1.67;;
37873;SDS011;23709;48.078;11.684;2023-04-24T12:03:47;1.73;;;1.40;;
37873;SDS011;23709;48.078;11.684;2023-04-24T12:06:20;2.53;;;1.60;;
37873;SDS011;23709;48.078;11.684;2023-04-24T12:08:52;2.15;;;1.30;;
37873;SDS011;23709;48.078;11.684;2023-04-24T12:11:35;2.80;;;1.60;;
37873;SDS011;23709;48.078;11.684;2023-04-24T12:14:11;3.10;;;1.70;;
37873;SDS011;23709;48.078;11.684;2023-04-24T12:16:47;6.13;;;1.60;;
37873;SDS011;23709;48.078;11.684;2023-04-24T12:19:22;2.78;;;2.00;;
37873;SDS011;23709;48.078;11.684;2023-04-24T12:22:02;4.03;;;1.90;;
37873;SDS011;23709;48.078;11.684;2023-04-24T12:24:54;3.20;;;1.60;;
37873;SDS011;23709;48.078;11.684;2023-04-24T12:27:35;5.30;;;2.30;;
37873;SDS011;23709;48.078;11.684;2023-04-24T12:30:10;3.47;;;2.13;;
37873;SDS011;23709;48.078;11.684;2023-04-24T12:32:48;2.75;;;2.05;;
37873;SDS011;23709;48.078;11.684;2023-04-24T12:35:23;2.60;;;2.08;;
37873;SDS011;23709;48.078;11.684;2023-04-24T12:38:07;6.53;;;3.17;;
37873;SDS011;23709;48.078;11.684;2023-04-24T12:40:42;3.67;;;2.00;;
37873;SDS011;23709;48.078;11.684;2023-04-24T12:43:18;5.38;;;2.65;;
37873;SDS011;23709;48.078;11.684;2023-04-24T12:45:52;3.33;;;1.73;;
37873;SDS011;23709;48.078;11.684;2023-04-24T12:48:27;6.65;;;3.42;;
37873;SDS011;23709;48.078;11.684;2023-04-24T12:51:01;4.25;;;2.55;;
37873;SDS011;23709;48.078;11.684;2023-04-24T12:53:34;4.13;;;2.78;;
37873;SDS011;23709;48.078;11.684;2023-04-24T12:56:06;5.78;;;2.30;;
37873;SDS011;23709;48.078;11.684;2023-04-24T12:58:38;4.63;;;2.05;;
37873;SDS011;23709;48.078;11.684;2023-04-24T13:01:10;5.35;;;2.50;;
37873;SDS011;23709;48.078;11.684;2023-04-24T13:03:43;6.13;;;2.45;;
37873;SDS011;23709;48.078;11.684;2023-04-24T13:06:15;4.45;;;2.83;;
37873;SDS011;23709;48.078;11.684;2023-04-24T13:08:48;4.20;;;2.25;;
37873;SDS011;23709;48.078;11.684;2023-04-24T13:11:20;3.10;;;1.50;;
37873;SDS011;23709;48.078;11.684;2023-04-24T13:13:54;6.50;;;2.42;;
37873;SDS011;23709;48.078;11.684;2023-04-24T13:16:26;3.42;;;1.92;;
37873;SDS011;23709;48.078;11.684;2023-04-24T13:18:59;3.63;;;2.28;;
37873;SDS011;23709;48.078;11.684;2023-04-24T13:21:31;5.53;;;2.17;;
37873;SDS011;23709;48.078;11.684;2023-04-24T13:24:04;4.22;;;2.58;;
37873;SDS011;23709;48.078;11.684;2023-04-24T13:26:37;3.70;;;1.98;;
37873;SDS011;23709;48.078;11.684;2023-04-24T13:29:09;6.13;;;2.60;;
37873;SDS011;23709;48.078;11.684;2023-04-24T13:31:42;17.38;;;6.88;;
37873;SDS011;23709;48.078;11.684;2023-04-24T13:34:15;8.60;;;3.00;;
37873;SDS011;23709;48.078;11.684;2023-04-24T13:36:47;7.53;;;2.70;;
37873;SDS011;23709;48.078;11.684;2023-04-24T13:39:23;5.63;;;2.95;;
37873;SDS011;23709;48.078;11.684;2023-04-24T13:41:56;7.32;;;3.65;;
37873;SDS011;23709;48.078;11.684;2023-04-24T13:44:29;3.30;;;2.65;;
37873;SDS011;23709;48.078;11.684;2023-04-24T13:47:01;3.80;;;2.55;;
37873;SDS011;23709;48.078;11.684;2023-04-24T13:49:34;6.75;;;2.80;;
37873;SDS011;23709;48.078;11.684;2023-04-24T13:52:06;5.65;;;3.08;;
37873;SDS011;23709;48.078;11.684;2023-04-24T13:54:39;5.03;;;2.80;;
37873;SDS011;23709;48.078;11.684;2023-04-24T13:57:11;6.28;;;2.80;;
37873;SDS011;23709;48.078;11.684;2023-04-24T13:59:44;4.68;;;2.10;;
37873;SDS011;23709;48.078;11.684;2023-04-24T14:02:17;3.67;;;2.25;;
37873;SDS011;23709;48.078;11.684;2023-04-24T14:04:49;4.22;;;2.88;;
37873;SDS011;23709;48.078;11.684;2023-04-24T14:07:22;4.68;;;2.50;;
37873;SDS011;23709;48.078;11.684;2023-04-24T14:09:54;2.95;;;2.25;;
37873;SDS011;23709;48.078;11.684;2023-04-24T14:12:27;3.97;;;2.33;;
37873;SDS011;23709;48.078;11.684;2023-04-24T14:14:59;3.72;;;2.13;;
37873;SDS011;23709;48.078;11.684;2023-04-24T14:17:33;4.07;;;1.92;;
37873;SDS011;23709;48.078;11.684;2023-04-24T14:20:06;7.63;;;2.30;;
37873;SDS011;23709;48.078;11.684;2023-04-24T14:22:38;6.55;;;2.10;;
37873;SDS011;23709;48.078;11.684;2023-04-24T14:25:11;3.35;;;2.05;;
37873;SDS011;23709;48.078;11.684;2023-04-24T14:27:43;2.38;;;2.05;;
37873;SDS011;23709;48.078;11.684;2023-04-24T14:30:15;3.80;;;1.90;;
37873;SDS011;23709;48.078;11.684;2023-04-24T14:32:48;3.20;;;1.83;;
37873;SDS011;23709;48.078;11.684;2023-04-24T14:35:20;3.73;;;2.07;;
37873;SDS011;23709;48.078;11.684;2023-04-24T14:37:54;2.53;;;1.95;;
37873;SDS011;23709;48.078;11.684;2023-04-24T14:40:26;2.83;;;1.92;;
37873;SDS011;23709;48.078;11.684;2023-04-24T14:43:01;3.88;;;2.17;;
37873;SDS011;23709;48.078;11.684;2023-04-24T14:45:34;5.22;;;1.90;;
37873;SDS011;23709;48.078;11.684;2023-04-24T14:48:07;6.28;;;1.92;;
37873;SDS011;23709;48.078;11.684;2023-04-24T14:50:40;2.60;;;1.88;;
37873;SDS011;23709;48.078;11.684;2023-04-24T14:53:12;4.80;;;2.03;;
37873;SDS011;23709;48.078;11.684;2023-04-24T14:55:45;3.90;;;1.80;;
37873;SDS011;23709;48.078;11.684;2023-04-24T14:58:18;2.45;;;1.80;;
37873;SDS011;23709;48.078;11.684;2023-04-24T15:00:50;2.92;;;1.70;;
37873;SDS011;23709;48.078;11.684;2023-04-24T15:03:23;4.97;;;2.10;;
37873;SDS011;23709;48.078;11.684;2023-04-24T15:05:56;2.72;;;1.70;;
37873;SDS011;23709;48.078;11.684;2023-04-24T15:08:28;4.90;;;2.38;;
37873;SDS011;23709;48.078;11.684;2023-04-24T15:11:01;4.82;;;2.20;;
37873;SDS011;23709;48.078;11.684;2023-04-24T15:13:33;3.72;;;1.88;;
37873;SDS011;23709;48.078;11.684;2023-04-24T15:16:05;5.43;;;2.08;;
37873;SDS011;23709;48.078;11.684;2023-04-24T15:18:37;2.85;;;1.98;;
37873;SDS011;23709;48.078;11.684;2023-04-24T15:21:10;2.78;;;1.80;;
37873;SDS011;23709;48.078;11.684;2023-04-24T15:23:44;4.68;;;2.33;;
37873;SDS011;23709;48.078;11.684;2023-04-24T15:26:16;3.95;;;1.70;;
37873;SDS011;23709;48.078;11.684;2023-04-24T15:28:50;4.03;;;1.85;;
37873;SDS011;23709;48.078;11.684;2023-04-24T15:31:23;3.42;;;2.05;;
37873;SDS011;23709;48.078;11.684;2023-04-24T15:33:55;3.17;;;2.10;;
37873;SDS011;23709;48.078;11.684;2023-04-24T15:36:28;3.38;;;2.00;;
37873;SDS011;23709;48.078;11.684;2023-04-24T15:39:00;3.67;;;1.80;;
37873;SDS011;23709;48.078;11.684;2023-04-24T15:41:37;2.42;;;1.90;;
37873;SDS011;23709;48.078;11.684;2023-04-24T15:44:09;3.63;;;1.90;;
37873;SDS011;23709;48.078;11.684;2023-04-24T15:46:41;4.60;;;2.13;;
37873;SDS011;23709;48.078;11.684;2023-04-24T15:49:14;3.60;;;1.75;;
37873;SDS011;23709;48.078;11.684;2023-04-24T15:51:46;3.25;;;2.13;;
37873;SDS011;23709;48.078;11.684;2023-04-24T15:54:18;4.25;;;2.10;;